sensor_id;sensor_type;location;lat;lon;timestamp;temperature;humidity
18581;DHT22;9420;50.876;7.012;2024-01-30T00:01:51;6.27;85.98
18581;DHT22;9420;50.876;7.012;2024-01-30T00:04:18;6.21;85.91
18581;DHT22;9420;50.876;7.012;2024-01-30T00:06:46;6.14;86.07
18581;DHT22;9420;50.876;7.012;2024-01-30T00:09:12;6.24;86.00
18581;DHT22;9420;50.876;7.012;2024-01-30T00:11:39;6.24;86.01
18581;DHT22;9420;50.876;7.012;2024-01-30T00:14:06;6.27;85.98
18581;DHT22;9420;50.876;7.012;2024-01-30T00:16:33;6.34;85.82
18581;DHT22;9420;50.876;7.012;2024-01-30T00:18:59;6.34;85.81
18581;DHT22;9420;50.876;7.012;2024-01-30T00:21:27;6.27;85.99
18581;DHT22;9420;50.876;7.012;2024-01-30T00:23:55;6.17;86.28
18581;DHT22;9420;50.876;7.012;2024-01-30T00:26:21;6.20;86.25
18581;DHT22;9420;50.876;7.012;2024-01-30T00:28:48;6.29;86.01
18581;DHT22;9420;50.876;7.012;2024-01-30T00:31:15;6.24;86.04
18581;DHT22;9420;50.876;7.012;2024-01-30T00:33:41;6.32;86.02
18581;DHT22;9420;50.876;7.012;2024-01-30T00:36:09;6.38;85.80
18581;DHT22;9420;50.876;7.012;2024-01-30T00:38:37;6.27;86.09
18581;DHT22;9420;50.876;7.012;2024-01-30T00:41:07;6.32;85.99
18581;DHT22;9420;50.876;7.012;2024-01-30T00:43:34;6.32;86.05
18581;DHT22;9420;50.876;7.012;2024-01-30T00:46:01;6.29;85.98
18581;DHT22;9420;50.876;7.012;2024-01-30T00:48:28;6.32;85.89
18581;DHT22;9420;50.876;7.012;2024-01-30T00:50:56;6.28;85.98
18581;DHT22;9420;50.876;7.012;2024-01-30T00:53:23;6.27;86.06
18581;DHT22;9420;50.876;7.012;2024-01-30T00:55:49;6.31;86.06
18581;DHT22;9420;50.876;7.012;2024-01-30T00:58:17;6.42;85.76
18581;DHT22;9420;50.876;7.012;2024-01-30T01:00:44;6.42;85.75
18581;DHT22;9420;50.876;7.012;2024-01-30T01:03:11;6.37;85.79
18581;DHT22;9420;50.876;7.012;2024-01-30T01:05:39;6.38;85.78
18581;DHT22;9420;50.876;7.012;2024-01-30T01:08:06;6.39;85.82
18581;DHT22;9420;50.876;7.012;2024-01-30T01:10:34;6.35;85.88
18581;DHT22;9420;50.876;7.012;2024-01-30T01:13:00;6.41;85.78
18581;DHT22;9420;50.876;7.012;2024-01-30T01:15:28;6.37;85.97
18581;DHT22;9420;50.876;7.012;2024-01-30T01:17:55;6.32;86.07
18581;DHT22;9420;50.876;7.012;2024-01-30T01:20:22;6.34;86.00
18581;DHT22;9420;50.876;7.012;2024-01-30T01:22:48;6.41;85.92
18581;DHT22;9420;50.876;7.012;2024-01-30T01:25:15;6.41;85.84
18581;DHT22;9420;50.876;7.012;2024-01-30T01:27:41;6.44;85.78
18581;DHT22;9420;50.876;7.012;2024-01-30T01:30:10;6.39;85.85
18581;DHT22;9420;50.876;7.012;2024-01-30T01:32:41;6.44;85.66
18581;DHT22;9420;50.876;7.012;2024-01-30T01:35:14;6.55;85.57
18581;DHT22;9420;50.876;7.012;2024-01-30T01:37:41;6.55;85.51
18581;DHT22;9420;50.876;7.012;2024-01-30T01:40:08;6.49;85.76
18581;DHT22;9420;50.876;7.012;2024-01-30T01:42:35;6.52;85.67
18581;DHT22;9420;50.876;7.012;2024-01-30T01:45:01;6.49;85.68
18581;DHT22;9420;50.876;7.012;2024-01-30T01:47:28;6.53;85.65
18581;DHT22;9420;50.876;7.012;2024-01-30T01:49:56;6.62;85.41
18581;DHT22;9420;50.876;7.012;2024-01-30T01:52:22;6.61;85.47
18581;DHT22;9420;50.876;7.012;2024-01-30T01:54:49;6.64;85.40
18581;DHT22;9420;50.876;7.012;2024-01-30T01:57:16;6.58;85.52
18581;DHT22;9420;50.876;7.012;2024-01-30T01:59:42;6.61;85.44
18581;DHT22;9420;50.876;7.012;2024-01-30T02:02:11;6.52;85.65
18581;DHT22;9420;50.876;7.012;2024-01-30T02:04:39;6.50;85.78
18581;DHT22;9420;50.876;7.012;2024-01-30T02:07:07;6.56;85.59
18581;DHT22;9420;50.876;7.012;2024-01-30T02:09:34;6.55;85.57
18581;DHT22;9420;50.876;7.012;2024-01-30T02:12:00;6.58;85.48
18581;DHT22;9420;50.876;7.012;2024-01-30T02:14:27;6.68;85.36
18581;DHT22;9420;50.876;7.012;2024-01-30T02:16:53;6.69;85.25
18581;DHT22;9420;50.876;7.012;2024-01-30T02:19:20;6.68;85.27
18581;DHT22;9420;50.876;7.012;2024-01-30T02:21:48;6.76;85.19
18581;DHT22;9420;50.876;7.012;2024-01-30T02:24:15;6.75;85.14
18581;DHT22;9420;50.876;7.012;2024-01-30T02:26:41;6.68;85.21
18581;DHT22;9420;50.876;7.012;2024-01-30T02:29:08;6.71;85.21
18581;DHT22;9420;50.876;7.012;2024-01-30T02:31:34;6.68;85.29
18581;DHT22;9420;50.876;7.012;2024-01-30T02:34:01;6.66;85.23
18581;DHT22;9420;50.876;7.012;2024-01-30T02:36:28;6.69;85.27
18581;DHT22;9420;50.876;7.012;2024-01-30T02:38:56;6.71;85.16
18581;DHT22;9420;50.876;7.012;2024-01-30T02:41:22;6.72;84.94
18581;DHT22;9420;50.876;7.012;2024-01-30T02:43:49;6.65;85.20
18581;DHT22;9420;50.876;7.012;2024-01-30T02:46:16;6.62;85.28
18581;DHT22;9420;50.876;7.012;2024-01-30T02:48:42;6.59;85.39
18581;DHT22;9420;50.876;7.012;2024-01-30T02:51:09;6.59;85.44
18581;DHT22;9420;50.876;7.012;2024-01-30T02:53:36;6.53;85.52
18581;DHT22;9420;50.876;7.012;2024-01-30T02:56:04;6.56;85.46
18581;DHT22;9420;50.876;7.012;2024-01-30T02:58:35;6.61;85.48
18581;DHT22;9420;50.876;7.012;2024-01-30T03:01:01;6.55;85.63
18581;DHT22;9420;50.876;7.012;2024-01-30T03:03:28;6.52;85.61
18581;DHT22;9420;50.876;7.012;2024-01-30T03:05:55;6.46;85.61
18581;DHT22;9420;50.876;7.012;2024-01-30T03:08:21;6.50;85.73
18581;DHT22;9420;50.876;7.012;2024-01-30T03:10:48;6.59;85.50
18581;DHT22;9420;50.876;7.012;2024-01-30T03:13:16;6.59;85.46
18581;DHT22;9420;50.876;7.012;2024-01-30T03:15:43;6.49;85.47
18581;DHT22;9420;50.876;7.012;2024-01-30T03:18:10;6.56;85.61
18581;DHT22;9420;50.876;7.012;2024-01-30T03:20:36;6.52;85.67
18581;DHT22;9420;50.876;7.012;2024-01-30T03:23:03;6.50;85.54
18581;DHT22;9420;50.876;7.012;2024-01-30T03:25:30;6.48;85.59
18581;DHT22;9420;50.876;7.012;2024-01-30T03:27:57;6.37;85.79
18581;DHT22;9420;50.876;7.012;2024-01-30T03:30:25;6.45;85.68
18581;DHT22;9420;50.876;7.012;2024-01-30T03:32:53;6.44;85.75
18581;DHT22;9420;50.876;7.012;2024-01-30T03:35:21;6.44;85.82
18581;DHT22;9420;50.876;7.012;2024-01-30T03:37:47;6.39;85.85
18581;DHT22;9420;50.876;7.012;2024-01-30T03:40:14;6.37;85.99
18581;DHT22;9420;50.876;7.012;2024-01-30T03:42:41;6.35;85.96
18581;DHT22;9420;50.876;7.012;2024-01-30T03:45:08;6.34;86.02
18581;DHT22;9420;50.876;7.012;2024-01-30T03:47:36;6.34;86.06
18581;DHT22;9420;50.876;7.012;2024-01-30T03:50:04;6.38;86.03
18581;DHT22;9420;50.876;7.012;2024-01-30T03:52:31;6.39;85.95
18581;DHT22;9420;50.876;7.012;2024-01-30T03:54:57;6.49;85.75
18581;DHT22;9420;50.876;7.012;2024-01-30T03:57:24;6.35;85.94
18581;DHT22;9420;50.876;7.012;2024-01-30T03:59:52;6.29;86.18
18581;DHT22;9420;50.876;7.012;2024-01-30T04:02:18;6.25;86.39
18581;DHT22;9420;50.876;7.012;2024-01-30T04:04:46;6.39;85.97
18581;DHT22;9420;50.876;7.012;2024-01-30T04:07:13;6.42;85.82
18581;DHT22;9420;50.876;7.012;2024-01-30T04:09:39;6.49;85.80
18581;DHT22;9420;50.876;7.012;2024-01-30T04:12:06;6.29;86.15
18581;DHT22;9420;50.876;7.012;2024-01-30T04:14:33;6.22;86.43
18581;DHT22;9420;50.876;7.012;2024-01-30T04:17:00;6.31;86.28
18581;DHT22;9420;50.876;7.012;2024-01-30T04:19:27;6.28;86.26
18581;DHT22;9420;50.876;7.012;2024-01-30T04:21:55;6.24;86.41
18581;DHT22;9420;50.876;7.012;2024-01-30T04:24:22;6.28;86.33
18581;DHT22;9420;50.876;7.012;2024-01-30T04:26:48;6.18;86.50
18581;DHT22;9420;50.876;7.012;2024-01-30T04:29:15;6.17;86.42
18581;DHT22;9420;50.876;7.012;2024-01-30T04:31:41;6.14;86.75
18581;DHT22;9420;50.876;7.012;2024-01-30T04:34:08;6.22;86.42
18581;DHT22;9420;50.876;7.012;2024-01-30T04:36:34;6.16;86.48
18581;DHT22;9420;50.876;7.012;2024-01-30T04:39:02;6.13;86.63
18581;DHT22;9420;50.876;7.012;2024-01-30T04:41:29;6.16;86.61
18581;DHT22;9420;50.876;7.012;2024-01-30T04:43:57;5.98;86.95
18581;DHT22;9420;50.876;7.012;2024-01-30T04:46:24;6.06;86.72
18581;DHT22;9420;50.876;7.012;2024-01-30T04:48:51;6.04;86.79
18581;DHT22;9420;50.876;7.012;2024-01-30T04:51:17;5.98;87.03
18581;DHT22;9420;50.876;7.012;2024-01-30T04:53:44;5.97;87.02
18581;DHT22;9420;50.876;7.012;2024-01-30T04:56:12;6.03;86.62
18581;DHT22;9420;50.876;7.012;2024-01-30T04:58:38;6.00;86.85
18581;DHT22;9420;50.876;7.012;2024-01-30T05:01:05;6.00;86.73
18581;DHT22;9420;50.876;7.012;2024-01-30T05:03:33;5.97;86.76
18581;DHT22;9420;50.876;7.012;2024-01-30T05:06:00;6.10;86.60
18581;DHT22;9420;50.876;7.012;2024-01-30T05:08:27;5.89;86.93
18581;DHT22;9420;50.876;7.012;2024-01-30T05:10:53;5.81;87.03
18581;DHT22;9420;50.876;7.012;2024-01-30T05:13:21;5.74;87.23
18581;DHT22;9420;50.876;7.012;2024-01-30T05:15:48;5.71;87.29
18581;DHT22;9420;50.876;7.012;2024-01-30T05:18:15;5.76;87.08
18581;DHT22;9420;50.876;7.012;2024-01-30T05:20:41;5.77;87.06
18581;DHT22;9420;50.876;7.012;2024-01-30T05:23:08;5.69;87.18
18581;DHT22;9420;50.876;7.012;2024-01-30T05:25:35;5.65;87.22
18581;DHT22;9420;50.876;7.012;2024-01-30T05:28:02;5.65;87.35
18581;DHT22;9420;50.876;7.012;2024-01-30T05:30:30;5.73;87.08
18581;DHT22;9420;50.876;7.012;2024-01-30T05:32:56;5.66;87.31
18581;DHT22;9420;50.876;7.012;2024-01-30T05:35:23;5.65;87.21
18581;DHT22;9420;50.876;7.012;2024-01-30T05:37:50;5.65;87.27
18581;DHT22;9420;50.876;7.012;2024-01-30T05:40:16;5.62;87.37
18581;DHT22;9420;50.876;7.012;2024-01-30T05:42:43;5.76;87.14
18581;DHT22;9420;50.876;7.012;2024-01-30T05:45:10;5.81;87.01
18581;DHT22;9420;50.876;7.012;2024-01-30T05:47:37;5.86;86.99
18581;DHT22;9420;50.876;7.012;2024-01-30T05:50:05;5.80;87.13
18581;DHT22;9420;50.876;7.012;2024-01-30T05:52:32;5.71;87.20
18581;DHT22;9420;50.876;7.012;2024-01-30T05:54:59;5.74;87.31
18581;DHT22;9420;50.876;7.012;2024-01-30T05:57:26;5.76;87.19
18581;DHT22;9420;50.876;7.012;2024-01-30T05:59:52;5.71;87.35
18581;DHT22;9420;50.876;7.012;2024-01-30T06:02:19;5.70;87.36
18581;DHT22;9420;50.876;7.012;2024-01-30T06:04:47;5.73;87.55
18581;DHT22;9420;50.876;7.012;2024-01-30T06:07:14;5.77;87.28
18581;DHT22;9420;50.876;7.012;2024-01-30T06:09:40;5.74;87.37
18581;DHT22;9420;50.876;7.012;2024-01-30T06:12:07;5.76;87.37
18581;DHT22;9420;50.876;7.012;2024-01-30T06:14:34;5.79;87.22
18581;DHT22;9420;50.876;7.012;2024-01-30T06:17:01;5.86;87.19
18581;DHT22;9420;50.876;7.012;2024-01-30T06:19:28;5.90;86.93
18581;DHT22;9420;50.876;7.012;2024-01-30T06:21:57;5.96;86.90
18581;DHT22;9420;50.876;7.012;2024-01-30T06:24:24;6.00;86.71
18581;DHT22;9420;50.876;7.012;2024-01-30T06:26:50;5.93;86.92
18581;DHT22;9420;50.876;7.012;2024-01-30T06:29:17;5.97;86.75
18581;DHT22;9420;50.876;7.012;2024-01-30T06:31:44;6.06;86.67
18581;DHT22;9420;50.876;7.012;2024-01-30T06:34:10;5.98;86.99
18581;DHT22;9420;50.876;7.012;2024-01-30T06:36:37;6.08;86.70
18581;DHT22;9420;50.876;7.012;2024-01-30T06:39:06;6.14;86.50
18581;DHT22;9420;50.876;7.012;2024-01-30T06:41:32;6.03;86.71
18581;DHT22;9420;50.876;7.012;2024-01-30T06:43:59;6.03;86.74
18581;DHT22;9420;50.876;7.012;2024-01-30T06:46:26;5.98;86.89
18581;DHT22;9420;50.876;7.012;2024-01-30T06:48:52;6.11;86.58
18581;DHT22;9420;50.876;7.012;2024-01-30T06:51:19;6.27;86.19
18581;DHT22;9420;50.876;7.012;2024-01-30T06:53:46;6.17;86.37
18581;DHT22;9420;50.876;7.012;2024-01-30T06:56:13;6.10;86.64
18581;DHT22;9420;50.876;7.012;2024-01-30T06:58:40;6.16;86.48
18581;DHT22;9420;50.876;7.012;2024-01-30T07:01:07;6.22;86.42
18581;DHT22;9420;50.876;7.012;2024-01-30T07:03:34;6.17;86.46
18581;DHT22;9420;50.876;7.012;2024-01-30T07:06:02;6.11;86.47
18581;DHT22;9420;50.876;7.012;2024-01-30T07:08:29;6.18;86.38
18581;DHT22;9420;50.876;7.012;2024-01-30T07:10:56;6.07;86.48
18581;DHT22;9420;50.876;7.012;2024-01-30T07:13:24;5.98;87.07
18581;DHT22;9420;50.876;7.012;2024-01-30T07:15:51;6.03;86.90
18581;DHT22;9420;50.876;7.012;2024-01-30T07:18:17;6.06;86.77
18581;DHT22;9420;50.876;7.012;2024-01-30T07:20:44;6.06;86.82
18581;DHT22;9420;50.876;7.012;2024-01-30T07:23:12;6.10;86.69
18581;DHT22;9420;50.876;7.012;2024-01-30T07:25:41;6.07;86.73
18581;DHT22;9420;50.876;7.012;2024-01-30T07:28:08;6.21;86.54
18581;DHT22;9420;50.876;7.012;2024-01-30T07:30:36;6.18;86.56
18581;DHT22;9420;50.876;7.012;2024-01-30T07:33:04;6.21;86.47
18581;DHT22;9420;50.876;7.012;2024-01-30T07:35:31;6.21;86.39
18581;DHT22;9420;50.876;7.012;2024-01-30T07:37:57;6.22;86.25
18581;DHT22;9420;50.876;7.012;2024-01-30T07:40:24;6.29;86.24
18581;DHT22;9420;50.876;7.012;2024-01-30T07:42:51;6.35;86.20
18581;DHT22;9420;50.876;7.012;2024-01-30T07:45:17;6.28;86.21
18581;DHT22;9420;50.876;7.012;2024-01-30T07:47:49;6.27;86.49
18581;DHT22;9420;50.876;7.012;2024-01-30T07:50:15;6.25;86.66
18581;DHT22;9420;50.876;7.012;2024-01-30T07:52:42;6.37;86.32
18581;DHT22;9420;50.876;7.012;2024-01-30T07:55:09;6.41;86.21
18581;DHT22;9420;50.876;7.012;2024-01-30T07:57:38;6.44;86.01
18581;DHT22;9420;50.876;7.012;2024-01-30T08:00:06;6.45;86.09
18581;DHT22;9420;50.876;7.012;2024-01-30T08:02:33;6.48;86.03
18581;DHT22;9420;50.876;7.012;2024-01-30T08:05:01;6.49;86.07
18581;DHT22;9420;50.876;7.012;2024-01-30T08:07:28;6.48;86.09
18581;DHT22;9420;50.876;7.012;2024-01-30T08:09:55;6.48;86.09
18581;DHT22;9420;50.876;7.012;2024-01-30T08:12:22;6.59;86.01
18581;DHT22;9420;50.876;7.012;2024-01-30T08:14:49;6.71;85.59
18581;DHT22;9420;50.876;7.012;2024-01-30T08:17:15;6.73;85.56
18581;DHT22;9420;50.876;7.012;2024-01-30T08:19:42;6.76;85.55
18581;DHT22;9420;50.876;7.012;2024-01-30T08:22:10;6.79;85.68
18581;DHT22;9420;50.876;7.012;2024-01-30T08:24:36;6.80;85.29
18581;DHT22;9420;50.876;7.012;2024-01-30T08:27:03;6.85;85.31
18581;DHT22;9420;50.876;7.012;2024-01-30T08:29:30;6.87;85.45
18581;DHT22;9420;50.876;7.012;2024-01-30T08:31:57;6.85;85.39
18581;DHT22;9420;50.876;7.012;2024-01-30T08:34:24;6.92;85.37
18581;DHT22;9420;50.876;7.012;2024-01-30T08:36:51;6.94;85.27
18581;DHT22;9420;50.876;7.012;2024-01-30T08:39:19;7.01;85.15
18581;DHT22;9420;50.876;7.012;2024-01-30T08:41:45;7.03;85.06
18581;DHT22;9420;50.876;7.012;2024-01-30T08:44:12;7.08;85.25
18581;DHT22;9420;50.876;7.012;2024-01-30T08:46:39;7.11;85.01
18581;DHT22;9420;50.876;7.012;2024-01-30T08:49:05;7.20;84.94
18581;DHT22;9420;50.876;7.012;2024-01-30T08:51:33;7.23;84.77
18581;DHT22;9420;50.876;7.012;2024-01-30T08:53:59;7.25;84.74
18581;DHT22;9420;50.876;7.012;2024-01-30T08:56:28;7.32;84.85
18581;DHT22;9420;50.876;7.012;2024-01-30T08:58:54;7.44;84.47
18581;DHT22;9420;50.876;7.012;2024-01-30T09:01:21;7.48;84.51
18581;DHT22;9420;50.876;7.012;2024-01-30T09:03:47;7.54;84.39
18581;DHT22;9420;50.876;7.012;2024-01-30T09:06:14;7.62;84.10
18581;DHT22;9420;50.876;7.012;2024-01-30T09:08:40;7.56;84.43
18581;DHT22;9420;50.876;7.012;2024-01-30T09:11:08;7.62;84.48
18581;DHT22;9420;50.876;7.012;2024-01-30T09:13:37;7.68;83.96
18581;DHT22;9420;50.876;7.012;2024-01-30T09:16:04;7.75;83.95
18581;DHT22;9420;50.876;7.012;2024-01-30T09:18:31;7.76;83.96
18581;DHT22;9420;50.876;7.012;2024-01-30T09:20:58;7.96;83.64
18581;DHT22;9420;50.876;7.012;2024-01-30T09:23:26;8.04;83.48
18581;DHT22;9420;50.876;7.012;2024-01-30T09:25:53;8.19;83.23
18581;DHT22;9420;50.876;7.012;2024-01-30T09:28:20;8.30;83.06
18581;DHT22;9420;50.876;7.012;2024-01-30T09:30:48;8.40;82.87
18581;DHT22;9420;50.876;7.012;2024-01-30T09:33:15;8.61;82.75
18581;DHT22;9420;50.876;7.012;2024-01-30T09:35:42;8.73;82.33
18581;DHT22;9420;50.876;7.012;2024-01-30T09:38:09;8.79;82.01
18581;DHT22;9420;50.876;7.012;2024-01-30T09:40:36;8.92;81.86
18581;DHT22;9420;50.876;7.012;2024-01-30T09:43:03;8.91;81.58
18581;DHT22;9420;50.876;7.012;2024-01-30T09:45:32;9.08;81.18
18581;DHT22;9420;50.876;7.012;2024-01-30T09:48:00;9.16;82.01
18581;DHT22;9420;50.876;7.012;2024-01-30T09:50:28;9.33;81.49
18581;DHT22;9420;50.876;7.012;2024-01-30T09:52:55;9.55;81.37
18581;DHT22;9420;50.876;7.012;2024-01-30T09:55:23;9.57;80.80
18581;DHT22;9420;50.876;7.012;2024-01-30T09:57:50;9.62;80.57
18581;DHT22;9420;50.876;7.012;2024-01-30T10:00:17;9.71;81.34
18581;DHT22;9420;50.876;7.012;2024-01-30T10:02:44;9.67;81.07
18581;DHT22;9420;50.876;7.012;2024-01-30T10:05:15;9.71;81.10
18581;DHT22;9420;50.876;7.012;2024-01-30T10:07:52;9.70;81.26
18581;DHT22;9420;50.876;7.012;2024-01-30T10:10:18;9.71;81.47
18581;DHT22;9420;50.876;7.012;2024-01-30T10:12:45;9.75;81.37
18581;DHT22;9420;50.876;7.012;2024-01-30T10:15:13;9.70;81.11
18581;DHT22;9420;50.876;7.012;2024-01-30T10:17:40;9.62;81.42
18581;DHT22;9420;50.876;7.012;2024-01-30T10:20:09;9.73;81.12
18581;DHT22;9420;50.876;7.012;2024-01-30T10:22:37;9.77;81.45
18581;DHT22;9420;50.876;7.012;2024-01-30T10:25:05;9.89;81.53
18581;DHT22;9420;50.876;7.012;2024-01-30T10:27:33;10.08;80.79
18581;DHT22;9420;50.876;7.012;2024-01-30T10:29:59;10.09;80.96
18581;DHT22;9420;50.876;7.012;2024-01-30T10:32:26;10.03;81.36
18581;DHT22;9420;50.876;7.012;2024-01-30T10:34:53;10.03;81.02
18581;DHT22;9420;50.876;7.012;2024-01-30T10:37:22;9.94;81.49
18581;DHT22;9420;50.876;7.012;2024-01-30T10:39:54;9.98;81.37
18581;DHT22;9420;50.876;7.012;2024-01-30T10:42:26;10.02;81.35
18581;DHT22;9420;50.876;7.012;2024-01-30T10:44:57;9.98;81.91
18581;DHT22;9420;50.876;7.012;2024-01-30T10:47:26;10.12;81.06
18581;DHT22;9420;50.876;7.012;2024-01-30T10:49:54;10.12;81.43
18581;DHT22;9420;50.876;7.012;2024-01-30T10:52:23;10.18;81.23
18581;DHT22;9420;50.876;7.012;2024-01-30T10:54:53;10.25;80.89
18581;DHT22;9420;50.876;7.012;2024-01-30T10:57:22;10.28;81.06
18581;DHT22;9420;50.876;7.012;2024-01-30T10:59:49;10.26;81.07
18581;DHT22;9420;50.876;7.012;2024-01-30T11:02:18;10.23;81.02
18581;DHT22;9420;50.876;7.012;2024-01-30T11:04:45;10.23;81.20
18581;DHT22;9420;50.876;7.012;2024-01-30T11:07:16;10.25;81.27
18581;DHT22;9420;50.876;7.012;2024-01-30T11:10:03;10.25;81.32
18581;DHT22;9420;50.876;7.012;2024-01-30T11:12:30;10.22;81.12
18581;DHT22;9420;50.876;7.012;2024-01-30T11:15:02;10.22;81.20
18581;DHT22;9420;50.876;7.012;2024-01-30T11:17:40;10.32;81.62
18581;DHT22;9420;50.876;7.012;2024-01-30T11:20:09;10.46;81.42
18581;DHT22;9420;50.876;7.012;2024-01-30T11:22:37;10.52;80.91
18581;DHT22;9420;50.876;7.012;2024-01-30T11:25:05;10.59;80.67
18581;DHT22;9420;50.876;7.012;2024-01-30T11:27:33;10.76;80.38
18581;DHT22;9420;50.876;7.012;2024-01-30T11:30:01;10.87;79.88
18581;DHT22;9420;50.876;7.012;2024-01-30T11:32:28;11.01;79.71
18581;DHT22;9420;50.876;7.012;2024-01-30T11:34:55;11.05;79.74
18581;DHT22;9420;50.876;7.012;2024-01-30T11:37:25;11.07;79.96
18581;DHT22;9420;50.876;7.012;2024-01-30T11:39:53;11.19;79.87
18581;DHT22;9420;50.876;7.012;2024-01-30T11:42:23;11.22;79.44
18581;DHT22;9420;50.876;7.012;2024-01-30T11:44:51;11.28;79.49
18581;DHT22;9420;50.876;7.012;2024-01-30T11:47:17;11.31;79.53
18581;DHT22;9420;50.876;7.012;2024-01-30T11:49:44;11.15;79.80
18581;DHT22;9420;50.876;7.012;2024-01-30T11:52:11;11.29;79.85
18581;DHT22;9420;50.876;7.012;2024-01-30T11:54:39;11.39;79.43
18581;DHT22;9420;50.876;7.012;2024-01-30T11:57:06;11.25;79.85
18581;DHT22;9420;50.876;7.012;2024-01-30T11:59:34;11.35;79.89
18581;DHT22;9420;50.876;7.012;2024-01-30T12:02:01;11.56;79.07
18581;DHT22;9420;50.876;7.012;2024-01-30T12:04:28;11.42;78.98
18581;DHT22;9420;50.876;7.012;2024-01-30T12:06:56;11.38;80.02
18581;DHT22;9420;50.876;7.012;2024-01-30T12:09:22;11.49;79.62
18581;DHT22;9420;50.876;7.012;2024-01-30T12:11:49;11.33;79.71
18581;DHT22;9420;50.876;7.012;2024-01-30T12:14:16;11.32;79.56
18581;DHT22;9420;50.876;7.012;2024-01-30T12:16:48;11.38;79.92
18581;DHT22;9420;50.876;7.012;2024-01-30T12:19:21;11.24;79.93
18581;DHT22;9420;50.876;7.012;2024-01-30T12:21:55;11.33;79.58
18581;DHT22;9420;50.876;7.012;2024-01-30T12:24:24;11.42;78.88
18581;DHT22;9420;50.876;7.012;2024-01-30T12:26:51;11.36;78.98
18581;DHT22;9420;50.876;7.012;2024-01-30T12:29:20;11.39;79.55
18581;DHT22;9420;50.876;7.012;2024-01-30T12:31:48;11.38;79.25
18581;DHT22;9420;50.876;7.012;2024-01-30T12:34:14;11.47;79.67
18581;DHT22;9420;50.876;7.012;2024-01-30T12:36:42;11.36;79.71
18581;DHT22;9420;50.876;7.012;2024-01-30T12:39:11;11.40;79.58
18581;DHT22;9420;50.876;7.012;2024-01-30T12:41:38;11.61;79.04
18581;DHT22;9420;50.876;7.012;2024-01-30T12:44:04;11.81;79.06
18581;DHT22;9420;50.876;7.012;2024-01-30T12:46:31;11.91;78.56
18581;DHT22;9420;50.876;7.012;2024-01-30T12:48:59;11.93;78.64
18581;DHT22;9420;50.876;7.012;2024-01-30T12:51:26;12.01;77.98
18581;DHT22;9420;50.876;7.012;2024-01-30T12:53:53;12.14;77.89
18581;DHT22;9420;50.876;7.012;2024-01-30T12:56:19;12.21;77.79
18581;DHT22;9420;50.876;7.012;2024-01-30T12:58:46;12.51;77.14
18581;DHT22;9420;50.876;7.012;2024-01-30T13:01:12;13.43;74.98
18581;DHT22;9420;50.876;7.012;2024-01-30T13:03:39;14.26;72.09
18581;DHT22;9420;50.876;7.012;2024-01-30T13:06:07;14.53;70.73
18581;DHT22;9420;50.876;7.012;2024-01-30T13:08:34;14.02;72.42
18581;DHT22;9420;50.876;7.012;2024-01-30T13:11:00;13.82;72.23
18581;DHT22;9420;50.876;7.012;2024-01-30T13:13:27;14.16;71.43
18581;DHT22;9420;50.876;7.012;2024-01-30T13:15:53;13.66;72.99
18581;DHT22;9420;50.876;7.012;2024-01-30T13:18:20;13.81;72.63
18581;DHT22;9420;50.876;7.012;2024-01-30T13:20:46;13.86;72.38
18581;DHT22;9420;50.876;7.012;2024-01-30T13:23:14;13.74;73.17
18581;DHT22;9420;50.876;7.012;2024-01-30T13:25:41;13.26;73.82
18581;DHT22;9420;50.876;7.012;2024-01-30T13:28:08;13.11;74.52
18581;DHT22;9420;50.876;7.012;2024-01-30T13:30:34;13.03;74.80
18581;DHT22;9420;50.876;7.012;2024-01-30T13:33:01;12.97;74.83
18581;DHT22;9420;50.876;7.012;2024-01-30T13:35:28;12.79;75.65
18581;DHT22;9420;50.876;7.012;2024-01-30T13:37:55;12.60;76.49
18581;DHT22;9420;50.876;7.012;2024-01-30T13:40:23;12.48;76.86
18581;DHT22;9420;50.876;7.012;2024-01-30T13:42:50;12.31;77.33
18581;DHT22;9420;50.876;7.012;2024-01-30T13:45:16;12.28;77.01
18581;DHT22;9420;50.876;7.012;2024-01-30T13:47:43;12.22;77.54
18581;DHT22;9420;50.876;7.012;2024-01-30T13:50:09;12.22;77.63
18581;DHT22;9420;50.876;7.012;2024-01-30T13:52:40;12.22;77.38
18581;DHT22;9420;50.876;7.012;2024-01-30T13:55:06;12.30;77.33
18581;DHT22;9420;50.876;7.012;2024-01-30T13:57:35;12.25;77.57
18581;DHT22;9420;50.876;7.012;2024-01-30T14:00:02;12.13;78.39
18581;DHT22;9420;50.876;7.012;2024-01-30T14:02:31;12.05;78.35
18581;DHT22;9420;50.876;7.012;2024-01-30T14:04:58;12.02;77.94
18581;DHT22;9420;50.876;7.012;2024-01-30T14:07:25;11.80;79.19
18581;DHT22;9420;50.876;7.012;2024-01-30T14:09:51;11.80;79.23
18581;DHT22;9420;50.876;7.012;2024-01-30T14:12:18;11.80;79.67
18581;DHT22;9420;50.876;7.012;2024-01-30T14:14:49;11.69;79.38
18581;DHT22;9420;50.876;7.012;2024-01-30T14:17:15;11.66;79.80
18581;DHT22;9420;50.876;7.012;2024-01-30T14:19:42;11.65;79.96
18581;DHT22;9420;50.876;7.012;2024-01-30T14:22:09;11.63;79.87
18581;DHT22;9420;50.876;7.012;2024-01-30T14:24:35;11.52;80.04
18581;DHT22;9420;50.876;7.012;2024-01-30T14:27:02;11.36;80.34
18581;DHT22;9420;50.876;7.012;2024-01-30T14:29:29;11.36;80.55
18581;DHT22;9420;50.876;7.012;2024-01-30T14:31:57;11.39;80.46
18581;DHT22;9420;50.876;7.012;2024-01-30T14:34:24;11.38;80.12
18581;DHT22;9420;50.876;7.012;2024-01-30T14:36:51;11.33;79.87
18581;DHT22;9420;50.876;7.012;2024-01-30T14:39:17;11.05;81.13
18581;DHT22;9420;50.876;7.012;2024-01-30T14:41:44;10.97;80.74
18581;DHT22;9420;50.876;7.012;2024-01-30T14:44:11;10.95;80.94
18581;DHT22;9420;50.876;7.012;2024-01-30T14:46:39;10.97;81.10
18581;DHT22;9420;50.876;7.012;2024-01-30T14:49:07;10.91;81.35
18581;DHT22;9420;50.876;7.012;2024-01-30T14:51:35;10.77;81.96
18581;DHT22;9420;50.876;7.012;2024-01-30T14:54:02;10.84;80.65
18581;DHT22;9420;50.876;7.012;2024-01-30T14:56:29;10.83;81.05
18581;DHT22;9420;50.876;7.012;2024-01-30T14:58:55;10.85;80.70
18581;DHT22;9420;50.876;7.012;2024-01-30T15:01:22;10.90;80.39
18581;DHT22;9420;50.876;7.012;2024-01-30T15:03:49;10.81;80.82
18581;DHT22;9420;50.876;7.012;2024-01-30T15:06:18;10.77;80.84
18581;DHT22;9420;50.876;7.012;2024-01-30T15:08:45;10.68;81.08
18581;DHT22;9420;50.876;7.012;2024-01-30T15:11:12;10.68;81.07
18581;DHT22;9420;50.876;7.012;2024-01-30T15:13:39;10.68;81.09
18581;DHT22;9420;50.876;7.012;2024-01-30T15:16:05;10.74;80.82
18581;DHT22;9420;50.876;7.012;2024-01-30T15:18:32;10.54;82.53
18581;DHT22;9420;50.876;7.012;2024-01-30T15:20:59;10.54;81.88
18581;DHT22;9420;50.876;7.012;2024-01-30T15:23:27;10.78;81.32
18581;DHT22;9420;50.876;7.012;2024-01-30T15:25:53;10.76;81.29
18581;DHT22;9420;50.876;7.012;2024-01-30T15:28:34;11.01;81.24
18581;DHT22;9420;50.876;7.012;2024-01-30T15:31:01;11.01;80.00
18581;DHT22;9420;50.876;7.012;2024-01-30T15:33:28;10.90;80.84
18581;DHT22;9420;50.876;7.012;2024-01-30T15:35:54;11.08;80.14
18581;DHT22;9420;50.876;7.012;2024-01-30T15:38:21;10.91;80.43
18581;DHT22;9420;50.876;7.012;2024-01-30T15:40:49;10.93;80.57
18581;DHT22;9420;50.876;7.012;2024-01-30T15:43:16;11.01;81.04
18581;DHT22;9420;50.876;7.012;2024-01-30T15:45:43;11.01;80.61
18581;DHT22;9420;50.876;7.012;2024-01-30T15:48:09;10.53;82.57
18581;DHT22;9420;50.876;7.012;2024-01-30T15:50:36;10.73;81.93
18581;DHT22;9420;50.876;7.012;2024-01-30T15:53:03;11.16;81.29
18581;DHT22;9420;50.876;7.012;2024-01-30T15:55:30;11.47;81.12
18581;DHT22;9420;50.876;7.012;2024-01-30T15:57:57;11.77;80.76